Terminal Aerodrome Forecast
Issued by NWS

Home | Current Version | Previous Version | Text Only | Print | Product List | Glossary On
Versions: 1 2 3 4 5 6 7 8 9 10 11 12 13 14 15 16 17 18
312
FTUS41 KBGM 182042 AAB
TAFITH
TAF AMD
KITH 182042Z 1821/1918 16011KT P6SM -RA OVC015
     FM190000 17012G22KT 5SM -RA BR OVC012
      TEMPO 1901/1905 2SM RA
     FM191000 27017G27KT 6SM -SHRA OVC010
     FM191400 29019G33KT 5SM -SN BLSN OVC025=

USA.gov is the U.S. government's official web portal to all federal, state and local government web resources and services.